sensor_id;sensor_type;location;lat;lon;timestamp;P1;durP1;ratioP1;P2;durP2;ratioP2
6834;SDS011;3455;42.150;24.734;2023-03-14T00:01:26;3.97;;;3.67;;
6834;SDS011;3455;42.150;24.734;2023-03-14T00:03:53;4.43;;;3.67;;
6834;SDS011;3455;42.150;24.734;2023-03-14T00:06:20;3.57;;;3.37;;
6834;SDS011;3455;42.150;24.734;2023-03-14T00:08:49;4.23;;;3.40;;
6834;SDS011;3455;42.150;24.734;2023-03-14T00:11:17;4.30;;;3.97;;
6834;SDS011;3455;42.150;24.734;2023-03-14T00:13:46;5.33;;;3.87;;
6834;SDS011;3455;42.150;24.734;2023-03-14T00:16:13;5.13;;;3.50;;
6834;SDS011;3455;42.150;24.734;2023-03-14T00:18:40;6.10;;;4.23;;
6834;SDS011;3455;42.150;24.734;2023-03-14T00:21:07;4.43;;;4.00;;
6834;SDS011;3455;42.150;24.734;2023-03-14T00:23:35;3.90;;;3.60;;
6834;SDS011;3455;42.150;24.734;2023-03-14T00:26:07;11.80;;;4.90;;
6834;SDS011;3455;42.150;24.734;2023-03-14T00:28:35;3.30;;;2.87;;
6834;SDS011;3455;42.150;24.734;2023-03-14T00:31:03;5.93;;;3.57;;
6834;SDS011;3455;42.150;24.734;2023-03-14T00:33:30;6.10;;;3.60;;
6834;SDS011;3455;42.150;24.734;2023-03-14T00:35:58;4.50;;;3.27;;
6834;SDS011;3455;42.150;24.734;2023-03-14T00:38:26;4.37;;;3.97;;
6834;SDS011;3455;42.150;24.734;2023-03-14T00:40:53;5.67;;;4.10;;
6834;SDS011;3455;42.150;24.734;2023-03-14T00:43:22;4.20;;;3.80;;
6834;SDS011;3455;42.150;24.734;2023-03-14T00:45:50;6.13;;;4.17;;
6834;SDS011;3455;42.150;24.734;2023-03-14T00:48:17;4.37;;;3.93;;
6834;SDS011;3455;42.150;24.734;2023-03-14T00:50:45;4.63;;;3.80;;
6834;SDS011;3455;42.150;24.734;2023-03-14T00:53:12;5.40;;;3.90;;
6834;SDS011;3455;42.150;24.734;2023-03-14T00:55:39;7.50;;;3.93;;
6834;SDS011;3455;42.150;24.734;2023-03-14T00:58:07;4.50;;;4.10;;
6834;SDS011;3455;42.150;24.734;2023-03-14T01:00:36;4.97;;;4.57;;
6834;SDS011;3455;42.150;24.734;2023-03-14T01:03:03;4.37;;;3.97;;
6834;SDS011;3455;42.150;24.734;2023-03-14T01:05:30;5.73;;;4.80;;
6834;SDS011;3455;42.150;24.734;2023-03-14T01:07:57;4.87;;;4.30;;
6834;SDS011;3455;42.150;24.734;2023-03-14T01:10:24;8.47;;;4.93;;
6834;SDS011;3455;42.150;24.734;2023-03-14T01:12:51;6.67;;;4.87;;
6834;SDS011;3455;42.150;24.734;2023-03-14T01:15:18;7.97;;;5.57;;
6834;SDS011;3455;42.150;24.734;2023-03-14T01:17:46;8.03;;;5.47;;
6834;SDS011;3455;42.150;24.734;2023-03-14T01:20:13;5.33;;;4.97;;
6834;SDS011;3455;42.150;24.734;2023-03-14T01:22:42;5.27;;;4.80;;
6834;SDS011;3455;42.150;24.734;2023-03-14T01:25:10;6.60;;;4.77;;
6834;SDS011;3455;42.150;24.734;2023-03-14T01:27:38;7.23;;;5.90;;
6834;SDS011;3455;42.150;24.734;2023-03-14T01:30:06;6.60;;;5.27;;
6834;SDS011;3455;42.150;24.734;2023-03-14T01:32:34;5.80;;;5.30;;
6834;SDS011;3455;42.150;24.734;2023-03-14T01:35:03;5.83;;;5.17;;
6834;SDS011;3455;42.150;24.734;2023-03-14T01:37:30;6.13;;;5.63;;
6834;SDS011;3455;42.150;24.734;2023-03-14T01:39:57;9.63;;;6.00;;
6834;SDS011;3455;42.150;24.734;2023-03-14T01:42:23;6.83;;;6.13;;
6834;SDS011;3455;42.150;24.734;2023-03-14T01:44:51;9.10;;;7.30;;
6834;SDS011;3455;42.150;24.734;2023-03-14T01:47:20;11.13;;;6.20;;
6834;SDS011;3455;42.150;24.734;2023-03-14T01:49:48;7.67;;;6.67;;
6834;SDS011;3455;42.150;24.734;2023-03-14T01:52:19;7.03;;;6.40;;
6834;SDS011;3455;42.150;24.734;2023-03-14T01:54:50;7.10;;;6.40;;
6834;SDS011;3455;42.150;24.734;2023-03-14T01:57:22;8.83;;;6.80;;
6834;SDS011;3455;42.150;24.734;2023-03-14T01:59:54;8.53;;;7.27;;
6834;SDS011;3455;42.150;24.734;2023-03-14T02:02:24;7.80;;;7.10;;
6834;SDS011;3455;42.150;24.734;2023-03-14T02:04:52;12.97;;;6.40;;
6834;SDS011;3455;42.150;24.734;2023-03-14T02:07:22;7.73;;;6.43;;
6834;SDS011;3455;42.150;24.734;2023-03-14T02:09:54;12.93;;;6.07;;
6834;SDS011;3455;42.150;24.734;2023-03-14T02:12:22;7.07;;;6.37;;
6834;SDS011;3455;42.150;24.734;2023-03-14T02:14:49;7.73;;;6.80;;
6834;SDS011;3455;42.150;24.734;2023-03-14T02:17:17;9.10;;;7.03;;
6834;SDS011;3455;42.150;24.734;2023-03-14T02:19:49;12.40;;;6.60;;
6834;SDS011;3455;42.150;24.734;2023-03-14T02:22:31;11.67;;;7.73;;
6834;SDS011;3455;42.150;24.734;2023-03-14T02:25:01;14.17;;;7.13;;
6834;SDS011;3455;42.150;24.734;2023-03-14T02:27:34;10.87;;;7.27;;
6834;SDS011;3455;42.150;24.734;2023-03-14T02:30:02;7.70;;;7.00;;
6834;SDS011;3455;42.150;24.734;2023-03-14T02:32:32;11.67;;;7.60;;
6834;SDS011;3455;42.150;24.734;2023-03-14T02:35:03;10.07;;;7.07;;
6834;SDS011;3455;42.150;24.734;2023-03-14T02:37:35;22.97;;;7.97;;
6834;SDS011;3455;42.150;24.734;2023-03-14T02:40:07;15.37;;;7.70;;
6834;SDS011;3455;42.150;24.734;2023-03-14T02:42:36;10.53;;;7.43;;
6834;SDS011;3455;42.150;24.734;2023-03-14T02:48:02;11.83;;;8.93;;
6834;SDS011;3455;42.150;24.734;2023-03-14T02:50:32;9.03;;;7.47;;
6834;SDS011;3455;42.150;24.734;2023-03-14T02:53:00;8.23;;;7.13;;
6834;SDS011;3455;42.150;24.734;2023-03-14T02:55:27;11.83;;;7.13;;
6834;SDS011;3455;42.150;24.734;2023-03-14T02:57:55;11.90;;;7.90;;
6834;SDS011;3455;42.150;24.734;2023-03-14T03:00:22;12.03;;;7.83;;
6834;SDS011;3455;42.150;24.734;2023-03-14T03:02:49;8.30;;;7.17;;
6834;SDS011;3455;42.150;24.734;2023-03-14T03:05:15;9.13;;;6.73;;
6834;SDS011;3455;42.150;24.734;2023-03-14T03:07:42;8.03;;;6.47;;
6834;SDS011;3455;42.150;24.734;2023-03-14T03:10:09;10.13;;;7.07;;
6834;SDS011;3455;42.150;24.734;2023-03-14T03:12:37;8.10;;;6.97;;
6834;SDS011;3455;42.150;24.734;2023-03-14T03:15:05;7.47;;;6.67;;
6834;SDS011;3455;42.150;24.734;2023-03-14T03:17:33;7.83;;;7.07;;
6834;SDS011;3455;42.150;24.734;2023-03-14T03:19:59;9.43;;;7.07;;
6834;SDS011;3455;42.150;24.734;2023-03-14T03:22:26;7.70;;;7.00;;
6834;SDS011;3455;42.150;24.734;2023-03-14T03:24:53;9.53;;;7.70;;
6834;SDS011;3455;42.150;24.734;2023-03-14T03:27:20;9.83;;;8.00;;
6834;SDS011;3455;42.150;24.734;2023-03-14T03:29:46;7.63;;;6.83;;
6834;SDS011;3455;42.150;24.734;2023-03-14T03:32:15;9.33;;;7.37;;
6834;SDS011;3455;42.150;24.734;2023-03-14T03:34:41;13.47;;;7.53;;
6834;SDS011;3455;42.150;24.734;2023-03-14T03:37:08;8.00;;;7.30;;
6834;SDS011;3455;42.150;24.734;2023-03-14T03:39:35;15.77;;;8.33;;
6834;SDS011;3455;42.150;24.734;2023-03-14T03:42:01;7.70;;;6.80;;
6834;SDS011;3455;42.150;24.734;2023-03-14T03:44:28;12.77;;;8.40;;
6834;SDS011;3455;42.150;24.734;2023-03-14T03:46:55;9.23;;;8.20;;
6834;SDS011;3455;42.150;24.734;2023-03-14T03:49:23;12.07;;;8.87;;
6834;SDS011;3455;42.150;24.734;2023-03-14T03:51:49;11.57;;;9.90;;
6834;SDS011;3455;42.150;24.734;2023-03-14T03:54:17;8.80;;;7.33;;
6834;SDS011;3455;42.150;24.734;2023-03-14T03:56:43;8.53;;;7.73;;
6834;SDS011;3455;42.150;24.734;2023-03-14T03:59:10;9.13;;;7.97;;
6834;SDS011;3455;42.150;24.734;2023-03-14T04:01:37;11.27;;;8.03;;
6834;SDS011;3455;42.150;24.734;2023-03-14T04:04:03;9.30;;;8.13;;
6834;SDS011;3455;42.150;24.734;2023-03-14T04:06:33;11.03;;;8.10;;
6834;SDS011;3455;42.150;24.734;2023-03-14T04:09:00;11.77;;;8.53;;
6834;SDS011;3455;42.150;24.734;2023-03-14T04:11:27;9.33;;;8.33;;
6834;SDS011;3455;42.150;24.734;2023-03-14T04:13:53;13.40;;;9.80;;
6834;SDS011;3455;42.150;24.734;2023-03-14T04:16:21;15.27;;;9.20;;
6834;SDS011;3455;42.150;24.734;2023-03-14T04:18:50;11.90;;;8.77;;
6834;SDS011;3455;42.150;24.734;2023-03-14T04:21:17;15.10;;;9.43;;
6834;SDS011;3455;42.150;24.734;2023-03-14T04:23:45;11.90;;;8.83;;
6834;SDS011;3455;42.150;24.734;2023-03-14T04:26:12;12.97;;;9.33;;
6834;SDS011;3455;42.150;24.734;2023-03-14T04:28:39;15.17;;;8.80;;
6834;SDS011;3455;42.150;24.734;2023-03-14T04:31:09;13.07;;;9.50;;
6834;SDS011;3455;42.150;24.734;2023-03-14T04:33:36;13.53;;;9.13;;
6834;SDS011;3455;42.150;24.734;2023-03-14T04:36:03;10.97;;;9.67;;
6834;SDS011;3455;42.150;24.734;2023-03-14T04:38:31;17.43;;;9.83;;
6834;SDS011;3455;42.150;24.734;2023-03-14T04:40:59;16.93;;;9.97;;
6834;SDS011;3455;42.150;24.734;2023-03-14T04:43:26;16.27;;;10.70;;
6834;SDS011;3455;42.150;24.734;2023-03-14T04:45:53;16.93;;;10.57;;
6834;SDS011;3455;42.150;24.734;2023-03-14T04:48:20;21.87;;;10.43;;
6834;SDS011;3455;42.150;24.734;2023-03-14T04:50:47;18.10;;;10.30;;
6834;SDS011;3455;42.150;24.734;2023-03-14T04:53:14;15.97;;;10.27;;
6834;SDS011;3455;42.150;24.734;2023-03-14T04:55:41;17.97;;;11.43;;
6834;SDS011;3455;42.150;24.734;2023-03-14T04:58:09;17.50;;;10.87;;
6834;SDS011;3455;42.150;24.734;2023-03-14T05:00:36;14.73;;;11.13;;
6834;SDS011;3455;42.150;24.734;2023-03-14T05:03:03;26.07;;;11.67;;
6834;SDS011;3455;42.150;24.734;2023-03-14T05:05:30;26.23;;;11.33;;
6834;SDS011;3455;42.150;24.734;2023-03-14T05:07:56;21.13;;;10.97;;
6834;SDS011;3455;42.150;24.734;2023-03-14T05:10:23;15.63;;;11.07;;
6834;SDS011;3455;42.150;24.734;2023-03-14T05:12:50;13.90;;;10.87;;
6834;SDS011;3455;42.150;24.734;2023-03-14T05:15:18;28.73;;;13.20;;
6834;SDS011;3455;42.150;24.734;2023-03-14T05:17:45;28.10;;;16.90;;
6834;SDS011;3455;42.150;24.734;2023-03-14T05:20:14;42.83;;;20.93;;
6834;SDS011;3455;42.150;24.734;2023-03-14T05:22:41;34.97;;;19.90;;
6834;SDS011;3455;42.150;24.734;2023-03-14T05:25:08;32.33;;;18.63;;
6834;SDS011;3455;42.150;24.734;2023-03-14T05:27:35;37.73;;;18.00;;
6834;SDS011;3455;42.150;24.734;2023-03-14T05:30:02;19.67;;;12.83;;
6834;SDS011;3455;42.150;24.734;2023-03-14T05:32:31;15.60;;;12.63;;
6834;SDS011;3455;42.150;24.734;2023-03-14T05:34:58;24.17;;;15.17;;
6834;SDS011;3455;42.150;24.734;2023-03-14T05:37:25;21.53;;;14.67;;
6834;SDS011;3455;42.150;24.734;2023-03-14T05:39:52;30.40;;;17.67;;
6834;SDS011;3455;42.150;24.734;2023-03-14T05:42:19;27.03;;;17.10;;
6834;SDS011;3455;42.150;24.734;2023-03-14T05:44:46;21.77;;;15.50;;
6834;SDS011;3455;42.150;24.734;2023-03-14T05:47:14;25.43;;;14.60;;
6834;SDS011;3455;42.150;24.734;2023-03-14T05:49:42;13.33;;;11.97;;
6834;SDS011;3455;42.150;24.734;2023-03-14T05:52:09;15.47;;;11.27;;
6834;SDS011;3455;42.150;24.734;2023-03-14T05:54:35;13.07;;;11.73;;
6834;SDS011;3455;42.150;24.734;2023-03-14T05:57:02;16.53;;;10.20;;
6834;SDS011;3455;42.150;24.734;2023-03-14T05:59:29;11.63;;;9.63;;
6834;SDS011;3455;42.150;24.734;2023-03-14T06:01:56;19.23;;;12.87;;
6834;SDS011;3455;42.150;24.734;2023-03-14T06:04:23;12.17;;;10.87;;
6834;SDS011;3455;42.150;24.734;2023-03-14T06:06:52;11.47;;;10.27;;
6834;SDS011;3455;42.150;24.734;2023-03-14T06:09:18;14.00;;;10.37;;
6834;SDS011;3455;42.150;24.734;2023-03-14T06:11:47;19.70;;;10.30;;
6834;SDS011;3455;42.150;24.734;2023-03-14T06:14:14;16.03;;;10.50;;
6834;SDS011;3455;42.150;24.734;2023-03-14T06:16:41;16.30;;;11.97;;
6834;SDS011;3455;42.150;24.734;2023-03-14T06:19:08;27.27;;;12.87;;
6834;SDS011;3455;42.150;24.734;2023-03-14T06:21:35;26.13;;;16.40;;
6834;SDS011;3455;42.150;24.734;2023-03-14T06:24:03;31.83;;;18.10;;
6834;SDS011;3455;42.150;24.734;2023-03-14T06:26:30;30.77;;;15.20;;
6834;SDS011;3455;42.150;24.734;2023-03-14T06:28:57;17.73;;;14.63;;
6834;SDS011;3455;42.150;24.734;2023-03-14T06:31:28;19.40;;;13.93;;
6834;SDS011;3455;42.150;24.734;2023-03-14T06:33:55;21.50;;;14.27;;
6834;SDS011;3455;42.150;24.734;2023-03-14T06:36:22;18.93;;;14.33;;
6834;SDS011;3455;42.150;24.734;2023-03-14T06:38:49;18.07;;;14.10;;
6834;SDS011;3455;42.150;24.734;2023-03-14T06:41:17;26.17;;;17.03;;
6834;SDS011;3455;42.150;24.734;2023-03-14T06:43:44;17.63;;;13.27;;
6834;SDS011;3455;42.150;24.734;2023-03-14T06:46:11;16.63;;;12.93;;
6834;SDS011;3455;42.150;24.734;2023-03-14T06:48:37;20.87;;;14.03;;
6834;SDS011;3455;42.150;24.734;2023-03-14T06:51:04;23.87;;;13.93;;
6834;SDS011;3455;42.150;24.734;2023-03-14T06:53:31;20.07;;;13.33;;
6834;SDS011;3455;42.150;24.734;2023-03-14T06:55:58;16.37;;;12.60;;
6834;SDS011;3455;42.150;24.734;2023-03-14T06:58:26;16.00;;;11.40;;
6834;SDS011;3455;42.150;24.734;2023-03-14T07:00:53;16.40;;;11.83;;
6834;SDS011;3455;42.150;24.734;2023-03-14T07:03:23;14.77;;;10.93;;
6834;SDS011;3455;42.150;24.734;2023-03-14T07:05:50;14.53;;;10.80;;
6834;SDS011;3455;42.150;24.734;2023-03-14T07:08:20;11.70;;;10.50;;
6834;SDS011;3455;42.150;24.734;2023-03-14T07:10:47;15.03;;;9.97;;
6834;SDS011;3455;42.150;24.734;2023-03-14T07:13:15;17.93;;;9.50;;
6834;SDS011;3455;42.150;24.734;2023-03-14T07:15:44;16.35;;;9.88;;
6834;SDS011;3455;42.150;24.734;2023-03-14T07:18:11;15.90;;;10.55;;
6834;SDS011;3455;42.150;24.734;2023-03-14T07:20:38;13.73;;;9.70;;
6834;SDS011;3455;42.150;24.734;2023-03-14T07:23:05;20.33;;;10.13;;
6834;SDS011;3455;42.150;24.734;2023-03-14T07:25:32;23.23;;;10.43;;
6834;SDS011;3455;42.150;24.734;2023-03-14T07:27:58;14.80;;;9.15;;
6834;SDS011;3455;42.150;24.734;2023-03-14T07:30:25;12.45;;;9.05;;
6834;SDS011;3455;42.150;24.734;2023-03-14T07:32:53;17.90;;;9.35;;
6834;SDS011;3455;42.150;24.734;2023-03-14T07:35:20;13.52;;;8.85;;
6834;SDS011;3455;42.150;24.734;2023-03-14T07:37:47;10.73;;;8.50;;
6834;SDS011;3455;42.150;24.734;2023-03-14T07:40:13;13.10;;;7.90;;
6834;SDS011;3455;42.150;24.734;2023-03-14T07:42:41;10.27;;;7.75;;
6834;SDS011;3455;42.150;24.734;2023-03-14T07:45:08;13.88;;;8.13;;
6834;SDS011;3455;42.150;24.734;2023-03-14T07:47:36;11.82;;;8.60;;
6834;SDS011;3455;42.150;24.734;2023-03-14T07:50:04;10.05;;;8.80;;
6834;SDS011;3455;42.150;24.734;2023-03-14T07:52:32;10.90;;;9.18;;
6834;SDS011;3455;42.150;24.734;2023-03-14T07:54:58;14.85;;;8.23;;
6834;SDS011;3455;42.150;24.734;2023-03-14T07:57:25;9.30;;;8.50;;
6834;SDS011;3455;42.150;24.734;2023-03-14T07:59:52;8.80;;;7.90;;
6834;SDS011;3455;42.150;24.734;2023-03-14T08:02:19;9.57;;;8.25;;
6834;SDS011;3455;42.150;24.734;2023-03-14T08:04:47;9.93;;;8.35;;
6834;SDS011;3455;42.150;24.734;2023-03-14T08:07:16;11.23;;;7.78;;
6834;SDS011;3455;42.150;24.734;2023-03-14T08:09:43;11.43;;;8.15;;
6834;SDS011;3455;42.150;24.734;2023-03-14T08:12:10;14.85;;;8.27;;
6834;SDS011;3455;42.150;24.734;2023-03-14T08:14:37;12.32;;;9.20;;
6834;SDS011;3455;42.150;24.734;2023-03-14T08:17:03;13.13;;;10.07;;
6834;SDS011;3455;42.150;24.734;2023-03-14T08:19:33;12.10;;;9.63;;
6834;SDS011;3455;42.150;24.734;2023-03-14T08:22:00;11.32;;;10.07;;
6834;SDS011;3455;42.150;24.734;2023-03-14T08:24:28;11.25;;;9.07;;
6834;SDS011;3455;42.150;24.734;2023-03-14T08:26:55;9.88;;;9.07;;
6834;SDS011;3455;42.150;24.734;2023-03-14T08:29:22;13.23;;;9.85;;
6834;SDS011;3455;42.150;24.734;2023-03-14T08:31:49;14.10;;;8.65;;
6834;SDS011;3455;42.150;24.734;2023-03-14T08:34:15;9.00;;;8.20;;
6834;SDS011;3455;42.150;24.734;2023-03-14T08:36:42;10.30;;;9.00;;
6834;SDS011;3455;42.150;24.734;2023-03-14T08:39:09;10.10;;;8.18;;
6834;SDS011;3455;42.150;24.734;2023-03-14T08:41:37;9.88;;;9.13;;
6834;SDS011;3455;42.150;24.734;2023-03-14T08:44:06;14.48;;;9.55;;
6834;SDS011;3455;42.150;24.734;2023-03-14T08:46:33;11.10;;;9.43;;
6834;SDS011;3455;42.150;24.734;2023-03-14T08:48:59;11.73;;;9.68;;
6834;SDS011;3455;42.150;24.734;2023-03-14T08:51:27;15.95;;;8.73;;
6834;SDS011;3455;42.150;24.734;2023-03-14T08:53:54;11.23;;;9.82;;
6834;SDS011;3455;42.150;24.734;2023-03-14T08:56:21;9.77;;;8.05;;
6834;SDS011;3455;42.150;24.734;2023-03-14T08:58:49;9.13;;;8.02;;
6834;SDS011;3455;42.150;24.734;2023-03-14T09:01:16;25.65;;;10.45;;
6834;SDS011;3455;42.150;24.734;2023-03-14T09:03:44;15.85;;;9.43;;
6834;SDS011;3455;42.150;24.734;2023-03-14T09:06:10;10.05;;;8.88;;
6834;SDS011;3455;42.150;24.734;2023-03-14T09:08:37;9.23;;;8.18;;
6834;SDS011;3455;42.150;24.734;2023-03-14T09:11:06;9.85;;;7.40;;
6834;SDS011;3455;42.150;24.734;2023-03-14T09:13:33;7.93;;;7.20;;
6834;SDS011;3455;42.150;24.734;2023-03-14T09:16:02;7.95;;;7.45;;
6834;SDS011;3455;42.150;24.734;2023-03-14T09:18:29;7.18;;;6.38;;
6834;SDS011;3455;42.150;24.734;2023-03-14T09:20:55;9.27;;;6.68;;
6834;SDS011;3455;42.150;24.734;2023-03-14T09:23:22;8.07;;;7.03;;
6834;SDS011;3455;42.150;24.734;2023-03-14T09:25:50;7.38;;;6.63;;
6834;SDS011;3455;42.150;24.734;2023-03-14T09:28:20;7.97;;;6.45;;
6834;SDS011;3455;42.150;24.734;2023-03-14T09:30:47;14.05;;;5.88;;
6834;SDS011;3455;42.150;24.734;2023-03-14T09:33:16;9.63;;;6.88;;
6834;SDS011;3455;42.150;24.734;2023-03-14T09:35:42;11.63;;;6.75;;
6834;SDS011;3455;42.150;24.734;2023-03-14T09:38:09;10.82;;;5.57;;
6834;SDS011;3455;42.150;24.734;2023-03-14T09:40:37;11.45;;;5.30;;
6834;SDS011;3455;42.150;24.734;2023-03-14T09:43:04;6.28;;;5.68;;
6834;SDS011;3455;42.150;24.734;2023-03-14T09:45:32;8.60;;;6.95;;
6834;SDS011;3455;42.150;24.734;2023-03-14T09:48:01;7.53;;;4.75;;
6834;SDS011;3455;42.150;24.734;2023-03-14T09:50:32;10.57;;;5.10;;
6834;SDS011;3455;42.150;24.734;2023-03-14T09:53:05;5.00;;;4.47;;
6834;SDS011;3455;42.150;24.734;2023-03-14T09:55:35;9.75;;;5.10;;
6834;SDS011;3455;42.150;24.734;2023-03-14T09:58:03;4.53;;;4.13;;
6834;SDS011;3455;42.150;24.734;2023-03-14T10:00:37;5.70;;;4.32;;
6834;SDS011;3455;42.150;24.734;2023-03-14T10:03:12;6.10;;;4.45;;
6834;SDS011;3455;42.150;24.734;2023-03-14T10:05:49;5.30;;;4.90;;
6834;SDS011;3455;42.150;24.734;2023-03-14T10:08:16;5.68;;;5.38;;
6834;SDS011;3455;42.150;24.734;2023-03-14T10:10:43;6.72;;;6.10;;
6834;SDS011;3455;42.150;24.734;2023-03-14T10:13:13;6.45;;;5.03;;
6834;SDS011;3455;42.150;24.734;2023-03-14T10:15:42;11.95;;;5.63;;
6834;SDS011;3455;42.150;24.734;2023-03-14T10:18:14;10.23;;;5.75;;
6834;SDS011;3455;42.150;24.734;2023-03-14T10:20:42;4.95;;;4.38;;
6834;SDS011;3455;42.150;24.734;2023-03-14T10:23:22;6.38;;;5.65;;
6834;SDS011;3455;42.150;24.734;2023-03-14T10:26:03;3.63;;;3.33;;
6834;SDS011;3455;42.150;24.734;2023-03-14T10:28:33;5.47;;;4.75;;
6834;SDS011;3455;42.150;24.734;2023-03-14T10:31:04;4.00;;;3.72;;
6834;SDS011;3455;42.150;24.734;2023-03-14T10:33:31;46.30;;;41.22;;
6834;SDS011;3455;42.150;24.734;2023-03-14T10:36:00;4.00;;;3.80;;
6834;SDS011;3455;42.150;24.734;2023-03-14T10:38:30;5.32;;;4.80;;
6834;SDS011;3455;42.150;24.734;2023-03-14T10:40:58;4.38;;;4.05;;
6834;SDS011;3455;42.150;24.734;2023-03-14T10:43:25;5.40;;;3.20;;
6834;SDS011;3455;42.150;24.734;2023-03-14T10:45:57;3.60;;;3.40;;
6834;SDS011;3455;42.150;24.734;2023-03-14T10:48:29;5.45;;;4.00;;
6834;SDS011;3455;42.150;24.734;2023-03-14T10:50:58;4.50;;;4.20;;
6834;SDS011;3455;42.150;24.734;2023-03-14T10:53:34;5.90;;;4.18;;
6834;SDS011;3455;42.150;24.734;2023-03-14T10:56:06;3.90;;;3.63;;
6834;SDS011;3455;42.150;24.734;2023-03-14T10:58:35;3.53;;;3.33;;
6834;SDS011;3455;42.150;24.734;2023-03-14T11:01:08;4.20;;;3.95;;
6834;SDS011;3455;42.150;24.734;2023-03-14T11:03:48;5.38;;;3.42;;
6834;SDS011;3455;42.150;24.734;2023-03-14T11:06:20;5.28;;;3.50;;
6834;SDS011;3455;42.150;24.734;2023-03-14T11:08:56;20.83;;;18.77;;
6834;SDS011;3455;42.150;24.734;2023-03-14T11:11:30;3.80;;;3.60;;
6834;SDS011;3455;42.150;24.734;2023-03-14T11:14:01;3.75;;;3.55;;
6834;SDS011;3455;42.150;24.734;2023-03-14T11:16:40;3.75;;;3.55;;
6834;SDS011;3455;42.150;24.734;2023-03-14T11:22:09;6.03;;;4.32;;
6834;SDS011;3455;42.150;24.734;2023-03-14T11:24:51;4.80;;;4.45;;
6834;SDS011;3455;42.150;24.734;2023-03-14T11:27:28;5.00;;;4.60;;
6834;SDS011;3455;42.150;24.734;2023-03-14T11:30:00;5.22;;;4.88;;
6834;SDS011;3455;42.150;24.734;2023-03-14T11:32:40;4.00;;;3.80;;
6834;SDS011;3455;42.150;24.734;2023-03-14T11:35:14;4.47;;;4.15;;
6834;SDS011;3455;42.150;24.734;2023-03-14T11:37:46;4.32;;;4.00;;
6834;SDS011;3455;42.150;24.734;2023-03-14T11:40:19;5.78;;;4.32;;
6834;SDS011;3455;42.150;24.734;2023-03-14T11:42:48;5.50;;;3.60;;
6834;SDS011;3455;42.150;24.734;2023-03-14T11:45:22;4.22;;;3.85;;
6834;SDS011;3455;42.150;24.734;2023-03-14T11:47:57;4.00;;;3.70;;
6834;SDS011;3455;42.150;24.734;2023-03-14T11:50:33;3.10;;;3.00;;
6834;SDS011;3455;42.150;24.734;2023-03-14T11:53:03;3.50;;;2.80;;
6834;SDS011;3455;42.150;24.734;2023-03-14T11:55:37;3.50;;;3.22;;
6834;SDS011;3455;42.150;24.734;2023-03-14T11:58:09;3.78;;;3.58;;
6834;SDS011;3455;42.150;24.734;2023-03-14T12:00:40;4.47;;;4.07;;
6834;SDS011;3455;42.150;24.734;2023-03-14T12:03:11;3.67;;;3.00;;
6834;SDS011;3455;42.150;24.734;2023-03-14T12:05:46;4.10;;;3.80;;
6834;SDS011;3455;42.150;24.734;2023-03-14T12:08:21;4.93;;;3.20;;
6834;SDS011;3455;42.150;24.734;2023-03-14T12:11:01;4.05;;;3.75;;
6834;SDS011;3455;42.150;24.734;2023-03-14T12:13:32;3.30;;;3.10;;
6834;SDS011;3455;42.150;24.734;2023-03-14T12:16:03;3.88;;;3.55;;
6834;SDS011;3455;42.150;24.734;2023-03-14T12:18:32;3.72;;;3.33;;
6834;SDS011;3455;42.150;24.734;2023-03-14T12:21:03;3.67;;;3.45;;
6834;SDS011;3455;42.150;24.734;2023-03-14T12:23:34;4.90;;;3.95;;
6834;SDS011;3455;42.150;24.734;2023-03-14T12:26:12;6.72;;;3.63;;
6834;SDS011;3455;42.150;24.734;2023-03-14T12:28:42;4.22;;;3.80;;
6834;SDS011;3455;42.150;24.734;2023-03-14T12:34:04;3.97;;;3.67;;
6834;SDS011;3455;42.150;24.734;2023-03-14T12:36:56;4.30;;;3.75;;
6834;SDS011;3455;42.150;24.734;2023-03-14T12:39:32;6.78;;;5.57;;
6834;SDS011;3455;42.150;24.734;2023-03-14T12:42:07;4.57;;;4.38;;
6834;SDS011;3455;42.150;24.734;2023-03-14T12:44:41;5.63;;;5.18;;
6834;SDS011;3455;42.150;24.734;2023-03-14T12:50:26;3.92;;;3.72;;
6834;SDS011;3455;42.150;24.734;2023-03-14T12:53:02;8.48;;;3.47;;
6834;SDS011;3455;42.150;24.734;2023-03-14T12:55:53;3.83;;;3.53;;
6834;SDS011;3455;42.150;24.734;2023-03-14T12:58:31;3.92;;;3.63;;
6834;SDS011;3455;42.150;24.734;2023-03-14T13:01:02;3.70;;;3.55;;
6834;SDS011;3455;42.150;24.734;2023-03-14T13:03:43;4.65;;;3.38;;
6834;SDS011;3455;42.150;24.734;2023-03-14T13:06:12;3.85;;;3.50;;
6834;SDS011;3455;42.150;24.734;2023-03-14T13:08:39;4.50;;;3.35;;
6834;SDS011;3455;42.150;24.734;2023-03-14T13:11:12;3.80;;;3.50;;
6834;SDS011;3455;42.150;24.734;2023-03-14T13:13:46;3.90;;;3.60;;
6834;SDS011;3455;42.150;24.734;2023-03-14T13:16:16;4.60;;;4.18;;
6834;SDS011;3455;42.150;24.734;2023-03-14T13:18:46;4.13;;;3.92;;
6834;SDS011;3455;42.150;24.734;2023-03-14T13:21:15;5.20;;;4.18;;
6834;SDS011;3455;42.150;24.734;2023-03-14T13:23:55;6.47;;;3.85;;
6834;SDS011;3455;42.150;24.734;2023-03-14T13:26:34;4.07;;;3.88;;
6834;SDS011;3455;42.150;24.734;2023-03-14T13:29:16;3.78;;;3.58;;
6834;SDS011;3455;42.150;24.734;2023-03-14T13:31:46;4.50;;;4.10;;
6834;SDS011;3455;42.150;24.734;2023-03-14T13:34:15;4.68;;;4.20;;
6834;SDS011;3455;42.150;24.734;2023-03-14T13:36:43;4.68;;;4.32;;
6834;SDS011;3455;42.150;24.734;2023-03-14T13:39:10;6.60;;;4.15;;
6834;SDS011;3455;42.150;24.734;2023-03-14T13:41:40;4.18;;;3.78;;
6834;SDS011;3455;42.150;24.734;2023-03-14T13:44:09;4.55;;;4.10;;
6834;SDS011;3455;42.150;24.734;2023-03-14T13:46:54;8.82;;;4.22;;
6834;SDS011;3455;42.150;24.734;2023-03-14T13:49:26;5.00;;;3.88;;
6834;SDS011;3455;42.150;24.734;2023-03-14T13:51:57;3.83;;;3.63;;
6834;SDS011;3455;42.150;24.734;2023-03-14T13:54:25;4.35;;;4.05;;
6834;SDS011;3455;42.150;24.734;2023-03-14T13:56:58;4.78;;;4.05;;
6834;SDS011;3455;42.150;24.734;2023-03-14T13:59:27;4.63;;;3.65;;
6834;SDS011;3455;42.150;24.734;2023-03-14T14:01:56;4.28;;;4.05;;
6834;SDS011;3455;42.150;24.734;2023-03-14T14:04:25;4.07;;;3.78;;
6834;SDS011;3455;42.150;24.734;2023-03-14T14:06:56;4.55;;;4.28;;
6834;SDS011;3455;42.150;24.734;2023-03-14T14:09:25;20.63;;;18.77;;
6834;SDS011;3455;42.150;24.734;2023-03-14T14:11:54;4.55;;;4.15;;
6834;SDS011;3455;42.150;24.734;2023-03-14T14:14:23;5.90;;;4.03;;
6834;SDS011;3455;42.150;24.734;2023-03-14T14:16:54;5.00;;;4.10;;
6834;SDS011;3455;42.150;24.734;2023-03-14T14:19:25;8.98;;;4.10;;
6834;SDS011;3455;42.150;24.734;2023-03-14T14:21:54;4.57;;;4.20;;
6834;SDS011;3455;42.150;24.734;2023-03-14T14:24:22;3.80;;;3.60;;
6834;SDS011;3455;42.150;24.734;2023-03-14T14:26:51;4.57;;;4.22;;
6834;SDS011;3455;42.150;24.734;2023-03-14T14:29:25;4.55;;;4.18;;
6834;SDS011;3455;42.150;24.734;2023-03-14T14:32:00;4.20;;;3.80;;
6834;SDS011;3455;42.150;24.734;2023-03-14T14:34:30;5.25;;;4.95;;
6834;SDS011;3455;42.150;24.734;2023-03-14T14:37:05;3.38;;;3.17;;
6834;SDS011;3455;42.150;24.734;2023-03-14T14:39:40;4.93;;;4.40;;
6834;SDS011;3455;42.150;24.734;2023-03-14T14:42:12;5.22;;;3.60;;
6834;SDS011;3455;42.150;24.734;2023-03-14T14:44:41;5.15;;;3.63;;
6834;SDS011;3455;42.150;24.734;2023-03-14T14:47:12;3.95;;;3.75;;
6834;SDS011;3455;42.150;24.734;2023-03-14T14:49:40;4.07;;;3.70;;
6834;SDS011;3455;42.150;24.734;2023-03-14T14:52:09;3.67;;;3.38;;
6834;SDS011;3455;42.150;24.734;2023-03-14T14:54:42;3.58;;;3.38;;
6834;SDS011;3455;42.150;24.734;2023-03-14T14:57:17;4.38;;;3.53;;
6834;SDS011;3455;42.150;24.734;2023-03-14T14:59:44;6.70;;;4.13;;
6834;SDS011;3455;42.150;24.734;2023-03-14T15:02:26;4.63;;;4.03;;
6834;SDS011;3455;42.150;24.734;2023-03-14T15:04:57;4.10;;;3.80;;
6834;SDS011;3455;42.150;24.734;2023-03-14T15:07:23;7.78;;;3.90;;
6834;SDS011;3455;42.150;24.734;2023-03-14T15:09:50;6.28;;;4.03;;
6834;SDS011;3455;42.150;24.734;2023-03-14T15:12:17;6.13;;;3.83;;
6834;SDS011;3455;42.150;24.734;2023-03-14T15:14:45;3.95;;;3.72;;
6834;SDS011;3455;42.150;24.734;2023-03-14T15:17:12;5.80;;;4.22;;